Airfield :







YOU CAN JOIN US ON...

 
LOGIN :

Register | Disclaimer

   EN    FR    IT 

 









Legend :    VFR   Marginal VFR   IFR   Intensive IFR   Very Intensive IFR
Visi :
Ceiling :
>= 8 km
>= 3000ft
5 to 8 km
1000 to 3000 ft
1500m to 5 km
500 to 1000 ft
800 to 1500m
200 to 500 ft
< 800m
< 200 ft
Symbols :   Thunderstorms  Fog  Heavy snow  Heavy precipitations  Wind > 20 kt






- Airport Elevation : 16 ft
- IATA code : FDF


TFFF - Aime Cesaire

CURRENT METAR :
  • 241230Z AUTO 10011KT CAVOK 27/22 Q1016 TEMPO 10015G25KT 4000 SHRA SCT018TCU

EXPIRED METARs :
  • 241200Z AUTO 10008KT CAVOK 26/22 Q1016 TEMPO 4000 SHRA SCT018TCU
  • 241130Z AUTO 00000KT CAVOK 24/22 Q1015 TEMPO 4000 SHRA SCT018TCU BECMG 09010KT
  • 241100Z AUTO 00000KT 9999 FEW027 SCT033 22/21 Q1015 TEMPO 4000 SHRA SCT018TCU BECMG 09010KT
  • 241030Z AUTO 05002KT 9999 FEW029 SCT072 22/20 Q1015 TEMPO 4000 SHRA SCT018TCU
  • 241000Z AUTO 00000KT 9999 FEW026 22/20 Q1014 TEMPO 4000 SHRA SCT018TCU BECMG 09010KT

TAF TAF TFFF
Valid from the 24 at 12:00 until the 25 at 12:00 UTC


241100Z 2412/2512 09010KT 9999 SCT025 SCT050
PROB30
TEMPO 2412/2420 4000 SHRA SCT018TCU
PROB40 2414/2421 10015G25KT
PROB30
TEMPO 2500/2512 VRB02KT
PROB30
TEMPO 2504/2512 4000 SHRA BKN018TCU
TTZP FIR / North America



MET'MAP, your aeronautical weather chart ! - Copyright ORBIFLY December 2007 - Disclaimer

ORBIFLY MET'MAP TEAM :

Programming & Development : Alexandra Zaïnal
Concept & original design : Baudouin d'Aumeries
Assistance for programming : Marc-Olivier Méhu
Technical & hardware support : Manuel Goepfert

Contact : metmap@orbifly.com




SOURCES & CREDITS :

   NOAA